Time;durP1;ratioP1;P1;durP2;ratioP2;P2;SDS_P1;SDS_P2;PMS_P1;PMS_P2;Temp;Humidity;BMP_temperature;BMP_pressure;BME280_temperature;BME280_humidity;BME280_pressure;Samples;Min_cycle;Max_cycle;Signal;HPM_P1;HPM_P2
2022/01/09 00:01:27;;;;;;;7.43;5.57;;;3.80;99.90;;;;;;5122094;27;20047;-80
2022/01/09 00:03:54;;;;;;;7.65;5.30;;;3.80;99.90;;;;;;5120868;27;20053;-80
2022/01/09 00:06:21;;;;;;;5.40;4.90;;;3.90;99.90;;;;;;5125375;27;20061;-81
2022/01/09 00:08:47;;;;;;;6.75;5.38;;;3.90;99.90;;;;;;5127739;27;20034;-80
2022/01/09 00:11:14;;;;;;;6.30;5.47;;;3.90;99.90;;;;;;5137050;27;20047;-80
2022/01/09 00:13:40;;;;;;;7.78;5.68;;;4.00;99.90;;;;;;5132953;27;20051;-80
2022/01/09 00:16:07;;;;;;;5.53;5.03;;;3.90;99.90;;;;;;5125723;27;20043;-80
2022/01/09 00:18:33;;;;;;;6.60;5.35;;;3.90;99.90;;;;;;5124915;27;20066;-80
2022/01/09 00:21:05;;;;;;;8.60;5.57;;;3.90;99.90;;;;;;5130214;27;20043;-80
2022/01/09 00:23:32;;;;;;;6.47;5.78;;;4.00;99.90;;;;;;5119885;27;20432;-80
2022/01/09 00:25:58;;;;;;;6.07;5.20;;;4.00;99.90;;;;;;5124815;27;20122;-79
2022/01/09 00:28:25;;;;;;;5.47;4.97;;;4.00;99.90;;;;;;5126295;27;20057;-80
2022/01/09 00:30:51;;;;;;;6.32;5.70;;;4.00;99.90;;;;;;5123277;27;20047;-81
2022/01/09 00:33:20;;;;;;;5.53;5.03;;;4.00;99.90;;;;;;5128880;27;20051;-80
2022/01/09 00:35:47;;;;;;;7.07;6.15;;;4.00;99.90;;;;;;5123708;27;20489;-80
2022/01/09 00:38:14;;;;;;;6.60;5.88;;;3.90;99.90;;;;;;5123419;27;20047;-79
2022/01/09 00:40:40;;;;;;;7.22;5.43;;;3.90;99.90;;;;;;5123203;27;20053;-80
2022/01/09 00:43:09;;;;;;;6.40;5.80;;;3.90;99.90;;;;;;5139750;27;20046;-80
2022/01/09 00:45:35;;;;;;;6.50;5.82;;;3.90;99.90;;;;;;5127523;27;20097;-80
2022/01/09 00:48:02;;;;;;;6.40;5.80;;;4.00;99.90;;;;;;5152633;27;20057;-80
2022/01/09 00:50:28;;;;;;;6.18;5.45;;;3.90;99.90;;;;;;5136281;27;20049;-80
2022/01/09 00:52:55;;;;;;;6.55;5.25;;;3.90;99.90;;;;;;5133225;27;20038;-79
2022/01/09 00:55:21;;;;;;;4.82;4.43;;;4.00;99.90;;;;;;5129797;27;20039;-80
2022/01/09 00:57:48;;;;;;;6.28;5.03;;;4.00;99.90;;;;;;5124028;27;20043;-80
2022/01/09 01:00:14;;;;;;;4.97;4.50;;;4.00;99.90;;;;;;5125875;27;20050;-80
2022/01/09 01:02:41;;;;;;;6.47;5.45;;;3.90;99.90;;;;;;5129440;27;20050;-80
2022/01/09 01:05:08;;;;;;;5.38;4.78;;;3.90;99.90;;;;;;5128131;27;20054;-80
2022/01/09 01:07:34;;;;;;;5.72;5.18;;;4.00;99.90;;;;;;5128578;27;20050;-80
2022/01/09 01:10:01;;;;;;;6.68;5.88;;;4.00;99.90;;;;;;5128213;27;20038;-81
2022/01/09 01:12:27;;;;;;;5.68;5.13;;;3.90;99.90;;;;;;5132132;27;20039;-81
2022/01/09 01:14:54;;;;;;;5.55;5.05;;;3.90;99.90;;;;;;5146011;27;20476;-80
2022/01/09 01:17:20;;;;;;;6.13;5.35;;;3.90;99.90;;;;;;5119567;27;20073;-80
2022/01/09 01:19:47;;;;;;;8.90;4.78;;;3.90;99.90;;;;;;5134947;27;20059;-80
2022/01/09 01:22:13;;;;;;;4.70;4.30;;;3.90;99.90;;;;;;5130033;27;20062;-80
2022/01/09 01:24:40;;;;;;;4.93;4.50;;;3.90;99.90;;;;;;5136975;27;20050;-79
2022/01/09 01:27:06;;;;;;;5.13;4.63;;;3.90;99.90;;;;;;5122757;27;20040;-81
2022/01/09 01:29:34;;;;;;;5.47;4.40;;;3.90;99.90;;;;;;5125173;27;20047;-80
2022/01/09 01:32:01;;;;;;;5.07;4.57;;;3.90;99.90;;;;;;5129500;27;20050;-81
2022/01/09 01:34:27;;;;;;;4.95;4.32;;;3.90;99.90;;;;;;5120443;27;20054;-81
2022/01/09 01:36:54;;;;;;;5.32;4.75;;;3.90;99.90;;;;;;5129171;27;20051;-80
2022/01/09 01:39:20;;;;;;;6.18;5.53;;;3.90;99.90;;;;;;5118873;27;20051;-79
2022/01/09 01:41:47;;;;;;;6.35;5.75;;;3.80;99.90;;;;;;5118497;27;20039;-80
2022/01/09 01:44:13;;;;;;;4.85;4.35;;;3.90;99.90;;;;;;5122975;27;20055;-80
2022/01/09 01:46:40;;;;;;;5.95;5.00;;;3.90;99.90;;;;;;5139620;27;20043;-81
2022/01/09 01:49:07;;;;;;;5.20;4.70;;;3.90;99.90;;;;;;5131755;27;20047;-81
2022/01/09 01:51:34;;;;;;;6.07;5.47;;;3.90;99.90;;;;;;5126590;27;20490;-81
2022/01/09 01:54:01;;;;;;;6.45;5.45;;;3.80;99.90;;;;;;5124835;27;20463;-81
2022/01/09 01:56:27;;;;;;;5.55;5.00;;;3.80;99.90;;;;;;5138567;27;20484;-80
2022/01/09 01:58:54;;;;;;;5.72;5.15;;;3.90;99.90;;;;;;5124708;27;20051;-80
2022/01/09 02:01:21;;;;;;;6.28;5.78;;;3.80;99.90;;;;;;5135699;27;20060;-80
2022/01/09 02:03:47;;;;;;;6.47;5.43;;;3.80;99.90;;;;;;5124939;27;20039;-80
2022/01/09 02:06:15;;;;;;;6.55;5.72;;;3.80;99.90;;;;;;5120946;27;20055;-80
2022/01/09 02:08:41;;;;;;;8.43;6.53;;;3.80;99.90;;;;;;5115564;27;20051;-80
2022/01/09 02:11:08;;;;;;;6.50;5.72;;;3.80;99.90;;;;;;5127468;27;20043;-80
2022/01/09 02:13:36;;;;;;;6.90;6.30;;;3.80;99.90;;;;;;5115096;27;20371;-81
2022/01/09 02:16:04;;;;;;;6.70;6.00;;;3.80;99.90;;;;;;5115846;27;20062;-80
2022/01/09 02:18:31;;;;;;;7.00;6.30;;;3.80;99.90;;;;;;5127852;27;20059;-81
2022/01/09 02:20:58;;;;;;;7.05;6.35;;;3.80;99.90;;;;;;5097513;28;20048;-81
2022/01/09 02:23:25;;;;;;;5.75;5.07;;;3.80;99.90;;;;;;5112093;28;20079;-80
2022/01/09 02:25:52;;;;;;;8.13;6.63;;;3.80;99.90;;;;;;5091432;28;20713;-80
2022/01/09 02:28:18;;;;;;;6.03;5.55;;;3.70;99.90;;;;;;5091490;28;20059;-80
2022/01/09 02:30:45;;;;;;;8.60;6.15;;;3.80;99.90;;;;;;5093623;28;20494;-80
2022/01/09 02:33:11;;;;;;;6.20;5.60;;;3.80;99.90;;;;;;5107551;28;20386;-80
2022/01/09 02:35:38;;;;;;;7.38;6.15;;;3.80;99.90;;;;;;5101190;28;20130;-79
2022/01/09 02:38:04;;;;;;;6.93;6.22;;;3.80;99.90;;;;;;5094013;28;20127;-80
2022/01/09 02:40:31;;;;;;;7.78;6.97;;;3.80;99.90;;;;;;5102973;28;20479;-80
2022/01/09 02:42:57;;;;;;;6.85;5.90;;;3.80;99.90;;;;;;5092268;28;20055;-80
2022/01/09 02:45:26;;;;;;;6.75;6.05;;;3.70;99.90;;;;;;5102179;28;20505;-80
2022/01/09 02:47:53;;;;;;;7.60;6.68;;;3.80;99.90;;;;;;5091238;28;20040;-81
2022/01/09 02:50:31;;;;;;;7.80;7.00;;;3.80;99.90;;;;;;5100356;28;20044;-80
2022/01/09 02:53:00;;;;;;;8.73;7.03;;;3.80;99.90;;;;;;5105321;28;20089;-80
2022/01/09 02:55:26;;;;;;;8.25;7.45;;;3.80;99.90;;;;;;5094165;28;20055;-80
2022/01/09 02:57:53;;;;;;;8.05;7.00;;;3.70;99.90;;;;;;5096937;28;20048;-80
2022/01/09 03:00:19;;;;;;;8.52;7.63;;;3.80;99.90;;;;;;5105808;28;20048;-80
2022/01/09 03:02:46;;;;;;;9.07;7.88;;;3.80;99.90;;;;;;5099116;28;20050;-79
2022/01/09 03:05:13;;;;;;;9.95;8.25;;;3.70;99.90;;;;;;5091379;28;20055;-80
2022/01/09 03:07:39;;;;;;;10.48;8.18;;;3.70;99.90;;;;;;5100471;28;20040;-80
2022/01/09 03:10:06;;;;;;;8.80;7.90;;;3.80;99.90;;;;;;5098892;28;20063;-80
2022/01/09 03:12:32;;;;;;;9.98;8.75;;;3.80;99.90;;;;;;5091351;28;20075;-81
2022/01/09 03:14:59;;;;;;;9.63;8.05;;;3.80;99.90;;;;;;5107273;28;20079;-81
2022/01/09 03:17:26;;;;;;;8.98;8.10;;;3.70;99.90;;;;;;5105586;28;20053;-81
2022/01/09 03:19:52;;;;;;;9.88;8.80;;;3.70;99.90;;;;;;5110626;28;20565;-81
2022/01/09 03:22:19;;;;;;;10.18;8.68;;;3.70;99.90;;;;;;5118378;28;20051;-81
2022/01/09 03:24:45;;;;;;;10.07;9.07;;;3.70;99.90;;;;;;5118710;28;20478;-80
2022/01/09 03:27:12;;;;;;;10.90;9.57;;;3.80;99.90;;;;;;5129510;28;20050;-81
2022/01/09 03:29:38;;;;;;;11.30;10.20;;;3.80;99.90;;;;;;5120635;28;20051;-81
2022/01/09 03:32:05;;;;;;;11.82;9.82;;;3.80;99.90;;;;;;5122062;28;20062;-81
2022/01/09 03:34:31;;;;;;;11.30;9.77;;;3.80;99.90;;;;;;5129105;28;20047;-80
2022/01/09 03:36:58;;;;;;;13.45;10.07;;;3.80;99.90;;;;;;5117086;28;20043;-81
2022/01/09 03:39:24;;;;;;;12.82;10.02;;;3.80;99.90;;;;;;5115832;28;20067;-81
2022/01/09 03:41:51;;;;;;;14.05;10.98;;;3.80;99.90;;;;;;5121046;28;20052;-80
2022/01/09 03:44:17;;;;;;;14.63;10.18;;;3.80;99.90;;;;;;5114091;28;20085;-80
2022/01/09 03:46:44;;;;;;;15.57;11.15;;;3.90;99.90;;;;;;5125503;28;20043;-81
2022/01/09 03:49:11;;;;;;;13.70;11.50;;;3.90;99.90;;;;;;5129250;28;20054;-80
2022/01/09 03:51:38;;;;;;;16.55;11.05;;;3.90;99.90;;;;;;5119433;28;20058;-81
2022/01/09 03:54:05;;;;;;;15.32;10.93;;;3.90;99.90;;;;;;5127530;28;20490;-80
2022/01/09 03:56:31;;;;;;;12.43;11.00;;;3.90;99.90;;;;;;5113511;28;20131;-80
2022/01/09 03:58:58;;;;;;;14.60;11.90;;;3.90;99.90;;;;;;5121064;28;20055;-80
2022/01/09 04:01:24;;;;;;;13.95;11.63;;;4.00;99.90;;;;;;5117299;28;20058;-79
2022/01/09 04:03:51;;;;;;;14.68;11.75;;;3.90;99.90;;;;;;5124202;28;20051;-79
2022/01/09 04:06:17;;;;;;;13.20;10.48;;;3.90;99.90;;;;;;5111238;27;20046;-79
2022/01/09 04:08:44;;;;;;;18.73;10.48;;;4.00;99.90;;;;;;5118576;27;20044;-80
2022/01/09 04:11:11;;;;;;;16.88;10.77;;;4.10;99.90;;;;;;5115268;27;20470;-80
2022/01/09 04:13:37;;;;;;;15.23;9.63;;;4.10;99.90;;;;;;5115269;27;20074;-80
2022/01/09 04:16:04;;;;;;;18.23;8.70;;;4.20;99.90;;;;;;5128736;27;20040;-80
2022/01/09 04:18:31;;;;;;;13.32;7.78;;;4.30;99.90;;;;;;5127627;27;20054;-79
2022/01/09 04:20:58;;;;;;;14.60;8.20;;;4.30;99.90;;;;;;5119603;27;20047;-80
2022/01/09 04:23:24;;;;;;;15.48;8.77;;;4.40;99.90;;;;;;5129149;27;20051;-80
2022/01/09 04:25:51;;;;;;;20.25;7.22;;;4.50;99.90;;;;;;5121481;27;20072;-80
2022/01/09 04:28:18;;;;;;;15.90;5.53;;;4.70;99.90;;;;;;5124736;27;20126;-79
2022/01/09 04:30:44;;;;;;;12.13;6.00;;;4.90;99.90;;;;;;5130060;27;20070;-81
2022/01/09 04:33:11;;;;;;;19.42;5.88;;;5.00;99.90;;;;;;5128004;27;20086;-80
2022/01/09 04:35:37;;;;;;;11.68;3.95;;;4.90;99.90;;;;;;5130677;27;20058;-80
2022/01/09 04:38:04;;;;;;;13.38;4.38;;;5.00;99.90;;;;;;5134754;27;20043;-80
2022/01/09 04:40:31;;;;;;;13.73;4.45;;;5.00;99.90;;;;;;5119569;27;20039;-79
2022/01/09 04:43:00;;;;;;;17.20;4.80;;;5.10;99.90;;;;;;5130277;27;20058;-81
2022/01/09 04:45:28;;;;;;;15.43;3.90;;;5.20;99.90;;;;;;5130401;27;20142;-80
2022/01/09 04:47:56;;;;;;;15.38;4.32;;;5.20;99.90;;;;;;5140189;27;20051;-81
2022/01/09 04:50:24;;;;;;;14.38;4.07;;;5.20;99.90;;;;;;5142488;27;20119;-80
2022/01/09 04:52:53;;;;;;;14.15;3.90;;;5.20;99.90;;;;;;5122698;27;20170;-81
2022/01/09 04:55:20;;;;;;;18.17;4.38;;;5.20;99.90;;;;;;5126209;27;20043;-79
2022/01/09 04:57:46;;;;;;;17.38;4.70;;;5.20;99.90;;;;;;5118533;27;20047;-81
2022/01/09 05:00:13;;;;;;;13.52;3.83;;;5.10;99.90;;;;;;5134600;27;20492;-80
2022/01/09 05:02:39;;;;;;;15.70;3.97;;;5.10;99.90;;;;;;5133273;27;20478;-79
2022/01/09 05:05:06;;;;;;;16.88;4.55;;;5.10;99.90;;;;;;5117913;27;20040;-81
2022/01/09 05:07:32;;;;;;;16.00;3.50;;;5.10;99.90;;;;;;5117020;27;20046;-80
2022/01/09 05:09:59;;;;;;;20.15;4.35;;;5.00;99.90;;;;;;5122539;27;20047;-81
2022/01/09 05:12:25;;;;;;;12.20;3.83;;;4.90;99.90;;;;;;5119227;27;20054;-80
2022/01/09 05:14:52;;;;;;;25.58;5.35;;;5.00;99.90;;;;;;5120772;27;20051;-81
2022/01/09 05:17:19;;;;;;;13.35;3.10;;;5.00;99.90;;;;;;5120328;27;20130;-80
2022/01/09 05:19:46;;;;;;;20.40;4.13;;;5.00;99.90;;;;;;5125251;27;20054;-81
2022/01/09 05:22:13;;;;;;;17.88;5.10;;;5.00;99.90;;;;;;5123451;27;20051;-80
2022/01/09 05:24:40;;;;;;;29.75;5.30;;;5.00;99.90;;;;;;5132374;27;20047;-80
2022/01/09 05:27:06;;;;;;;26.45;5.32;;;5.20;99.90;;;;;;5120155;27;20248;-80
2022/01/09 05:29:33;;;;;;;39.67;6.60;;;5.20;99.90;;;;;;5116875;27;20043;-80
2022/01/09 05:31:59;;;;;;;48.17;7.40;;;5.30;99.90;;;;;;5126877;27;20046;-79
2022/01/09 05:34:26;;;;;;;39.60;7.20;;;5.30;99.90;;;;;;5133319;27;20047;-79
2022/01/09 05:36:52;;;;;;;35.67;8.13;;;5.40;99.90;;;;;;5134007;27;20047;-81
2022/01/09 05:39:19;;;;;;;44.22;7.07;;;5.50;99.90;;;;;;5116798;27;20050;-80
2022/01/09 05:41:45;;;;;;;44.13;8.52;;;5.50;99.90;;;;;;5120246;27;20050;-79
2022/01/09 05:44:12;;;;;;;31.65;7.85;;;5.50;99.90;;;;;;5133118;27;20051;-80
2022/01/09 05:46:38;;;;;;;28.67;8.15;;;5.60;99.90;;;;;;5127418;27;20050;-80
2022/01/09 05:49:05;;;;;;;30.10;7.30;;;5.70;99.90;;;;;;5147228;27;20051;-80
2022/01/09 05:51:31;;;;;;;26.08;6.38;;;5.70;99.90;;;;;;5127826;27;20058;-80
2022/01/09 05:53:58;;;;;;;33.08;6.68;;;5.70;99.90;;;;;;5129475;27;20050;-80
2022/01/09 05:56:25;;;;;;;45.38;7.13;;;5.80;99.90;;;;;;5138619;27;20053;-80
2022/01/09 05:58:51;;;;;;;23.98;5.68;;;5.90;99.90;;;;;;5122785;27;20107;-81
2022/01/09 06:01:18;;;;;;;30.75;7.32;;;5.90;99.90;;;;;;5126384;27;20051;-80
2022/01/09 06:03:44;;;;;;;43.13;7.72;;;5.90;99.90;;;;;;5128841;27;20055;-80
2022/01/09 06:06:11;;;;;;;45.38;6.72;;;5.90;99.90;;;;;;5115014;27;20058;-80
2022/01/09 06:08:37;;;;;;;23.85;6.65;;;5.90;99.90;;;;;;5126876;27;20058;-80
2022/01/09 06:11:04;;;;;;;28.40;7.35;;;6.00;99.90;;;;;;5120707;27;20047;-81
2022/01/09 06:13:30;;;;;;;34.05;6.18;;;5.90;99.90;;;;;;5121494;27;20055;-80
2022/01/09 06:15:58;;;;;;;20.20;5.60;;;5.80;99.90;;;;;;5115013;27;20141;-80
2022/01/09 06:18:24;;;;;;;15.68;4.93;;;5.90;99.90;;;;;;5119053;27;20050;-80
2022/01/09 06:20:51;;;;;;;28.60;6.20;;;5.90;99.90;;;;;;5127366;27;20405;-79
2022/01/09 06:23:20;;;;;;;33.92;6.60;;;5.90;99.90;;;;;;5128155;27;20413;-80
2022/01/09 06:25:46;;;;;;;22.65;5.95;;;5.90;99.90;;;;;;5116873;27;20051;-80
2022/01/09 06:28:13;;;;;;;34.78;6.47;;;5.90;99.90;;;;;;5127043;27;20060;-80
2022/01/09 06:30:39;;;;;;;28.80;5.53;;;5.90;99.90;;;;;;5121294;27;20059;-80
2022/01/09 06:33:06;;;;;;;21.48;7.38;;;5.80;99.90;;;;;;5126442;27;20055;-80
2022/01/09 06:35:32;;;;;;;27.23;6.45;;;5.90;99.90;;;;;;5136250;27;20406;-80
2022/01/09 06:37:59;;;;;;;22.67;5.43;;;5.80;99.90;;;;;;5124765;27;20046;-80
2022/01/09 06:40:26;;;;;;;26.75;7.22;;;5.90;99.90;;;;;;5122632;27;20055;-80
2022/01/09 06:42:52;;;;;;;21.15;5.47;;;5.80;99.90;;;;;;5115937;27;20051;-79
2022/01/09 06:45:21;;;;;;;24.20;5.50;;;5.70;99.90;;;;;;5114829;27;20062;-80
2022/01/09 06:47:48;;;;;;;27.33;6.50;;;5.80;99.90;;;;;;5125796;27;20490;-80
2022/01/09 06:50:15;;;;;;;27.48;5.70;;;5.70;99.90;;;;;;5132485;27;20053;-79
2022/01/09 06:52:41;;;;;;;31.77;6.43;;;5.70;99.90;;;;;;5129380;27;20150;-79
2022/01/09 06:55:08;;;;;;;32.90;6.10;;;5.70;99.90;;;;;;5130139;27;20501;-80
2022/01/09 06:57:34;;;;;;;22.02;5.20;;;5.70;99.90;;;;;;5130453;27;20047;-79
2022/01/09 07:00:01;;;;;;;33.15;5.93;;;5.80;99.90;;;;;;5125063;27;20043;-80
2022/01/09 07:02:27;;;;;;;31.38;6.60;;;5.80;99.90;;;;;;5116959;28;20054;-80
2022/01/09 07:04:54;;;;;;;17.13;4.30;;;5.70;99.90;;;;;;5126879;27;20047;-80
2022/01/09 07:07:20;;;;;;;33.33;6.55;;;5.80;99.90;;;;;;5149361;27;20056;-79
2022/01/09 07:09:47;;;;;;;33.67;7.10;;;5.70;99.90;;;;;;5132450;27;20039;-79
2022/01/09 07:12:14;;;;;;;14.48;5.38;;;5.70;99.90;;;;;;5131800;27;20054;-80
2022/01/09 07:14:40;;;;;;;31.98;5.93;;;5.80;99.90;;;;;;5129549;27;20053;-80
2022/01/09 07:17:07;;;;;;;27.67;5.45;;;5.80;99.90;;;;;;5127343;27;20039;-80
2022/01/09 07:19:33;;;;;;;20.77;4.95;;;5.80;99.90;;;;;;5128032;28;20055;-79
2022/01/09 07:22:00;;;;;;;27.65;4.82;;;5.70;99.90;;;;;;5129395;28;20043;-79
2022/01/09 07:24:26;;;;;;;20.23;5.45;;;5.70;99.90;;;;;;5131651;28;20065;-79
2022/01/09 07:26:53;;;;;;;28.77;4.93;;;5.70;99.90;;;;;;5133301;28;20043;-79
2022/01/09 07:29:19;;;;;;;23.77;5.47;;;5.70;99.90;;;;;;5136980;28;20047;-79
2022/01/09 07:31:46;;;;;;;25.80;5.63;;;5.70;99.90;;;;;;5132149;28;20047;-79
2022/01/09 07:34:12;;;;;;;24.45;4.55;;;5.70;99.90;;;;;;5130838;28;20039;-78
2022/01/09 07:36:39;;;;;;;15.18;4.70;;;5.60;99.90;;;;;;5125157;28;20055;-78
2022/01/09 07:39:05;;;;;;;34.47;4.97;;;5.60;99.90;;;;;;5127559;28;20050;-79
2022/01/09 07:41:32;;;;;;;27.65;7.03;;;5.60;99.90;;;;;;5131543;27;20048;-79
2022/01/09 07:43:59;;;;;;;19.02;4.28;;;5.70;99.90;;;;;;5133724;27;20054;-80
2022/01/09 07:46:25;;;;;;;16.15;4.95;;;5.70;99.90;;;;;;5133348;27;20047;-78
2022/01/09 07:48:52;;;;;;;20.85;4.75;;;5.60;99.90;;;;;;5133847;27;20039;-79
2022/01/09 07:51:18;;;;;;;18.73;4.63;;;5.60;99.90;;;;;;5132569;27;20047;-80
2022/01/09 07:53:45;;;;;;;23.10;5.10;;;5.70;99.90;;;;;;5132274;27;20047;-79
2022/01/09 07:56:11;;;;;;;20.55;3.95;;;5.70;99.90;;;;;;5133093;27;20046;-79
2022/01/09 07:58:38;;;;;;;19.38;4.50;;;5.70;99.90;;;;;;5134179;27;20054;-79
2022/01/09 08:01:04;;;;;;;21.30;4.63;;;5.60;99.90;;;;;;5131289;27;20047;-80
2022/01/09 08:03:31;;;;;;;21.35;3.97;;;5.60;99.90;;;;;;5132126;27;20050;-78
2022/01/09 08:05:57;;;;;;;18.38;3.63;;;5.60;99.90;;;;;;5133480;27;20050;-80
2022/01/09 08:08:24;;;;;;;26.20;4.72;;;5.60;99.90;;;;;;5131927;27;20051;-79
2022/01/09 08:10:52;;;;;;;20.10;3.80;;;5.50;99.90;;;;;;5130728;27;20051;-80
2022/01/09 08:13:18;;;;;;;26.95;5.68;;;5.50;99.90;;;;;;5128032;27;20118;-80
2022/01/09 08:15:45;;;;;;;30.10;3.92;;;5.60;99.90;;;;;;5132884;27;20058;-79
2022/01/09 08:18:11;;;;;;;24.35;4.43;;;5.50;99.90;;;;;;5130794;27;20047;-80
2022/01/09 08:20:38;;;;;;;22.63;4.30;;;5.50;99.90;;;;;;5129360;27;20112;-79
2022/01/09 08:23:04;;;;;;;14.77;4.13;;;5.50;99.90;;;;;;5131898;27;20054;-80
2022/01/09 08:25:31;;;;;;;18.65;4.30;;;5.60;99.90;;;;;;5133185;27;20462;-80
2022/01/09 08:27:58;;;;;;;25.15;4.95;;;5.50;99.90;;;;;;5131470;27;20035;-80
2022/01/09 08:30:24;;;;;;;23.88;5.28;;;5.50;99.90;;;;;;5132179;27;20409;-80
2022/01/09 08:32:52;;;;;;;18.50;3.83;;;5.50;99.90;;;;;;5129118;27;20394;-80
2022/01/09 08:35:18;;;;;;;30.60;4.53;;;5.50;99.90;;;;;;5127793;27;20047;-81
2022/01/09 08:37:45;;;;;;;14.27;4.07;;;5.50;99.90;;;;;;5130113;27;20058;-81
2022/01/09 08:40:11;;;;;;;15.63;3.83;;;5.50;99.90;;;;;;5127794;27;20058;-81
2022/01/09 08:42:38;;;;;;;13.18;3.30;;;5.50;99.90;;;;;;5134050;27;20062;-81
2022/01/09 08:45:04;;;;;;;18.85;4.65;;;5.50;99.90;;;;;;5129585;27;20050;-81
2022/01/09 08:47:31;;;;;;;28.42;4.65;;;5.60;99.90;;;;;;5129579;27;20044;-81
2022/01/09 08:49:57;;;;;;;20.92;4.13;;;5.50;99.90;;;;;;5127346;27;20390;-80
2022/01/09 08:52:24;;;;;;;22.70;4.47;;;5.50;99.90;;;;;;5119727;27;20075;-81
2022/01/09 08:54:51;;;;;;;16.00;4.07;;;5.40;99.90;;;;;;5114995;27;20096;-81
2022/01/09 08:57:18;;;;;;;20.60;4.25;;;5.40;99.90;;;;;;5120510;27;20501;-80
2022/01/09 08:59:44;;;;;;;16.33;4.05;;;5.40;99.90;;;;;;5127043;27;20470;-80
2022/01/09 09:02:11;;;;;;;26.10;4.43;;;5.50;99.90;;;;;;5126735;27;20054;-79
2022/01/09 09:04:38;;;;;;;28.48;3.60;;;5.40;99.90;;;;;;5129755;27;20075;-80
2022/01/09 09:07:04;;;;;;;18.08;4.50;;;5.40;99.90;;;;;;5126249;27;20236;-80
2022/01/09 09:09:31;;;;;;;15.25;3.45;;;5.50;99.90;;;;;;5113651;27;20683;-81
2022/01/09 09:11:57;;;;;;;10.75;2.65;;;5.50;99.90;;;;;;5117890;27;20043;-81
2022/01/09 09:14:24;;;;;;;14.80;3.88;;;5.50;99.90;;;;;;5124658;27;20375;-81
2022/01/09 09:16:51;;;;;;;16.30;4.03;;;5.50;99.90;;;;;;5126819;27;20517;-80
2022/01/09 09:19:17;;;;;;;19.55;3.50;;;5.50;99.90;;;;;;5112476;27;20582;-81
2022/01/09 09:21:46;;;;;;;11.00;2.90;;;5.50;99.90;;;;;;5121878;27;20138;-81
2022/01/09 09:24:13;;;;;;;26.13;4.50;;;5.50;99.90;;;;;;5127994;27;20066;-81
2022/01/09 09:26:39;;;;;;;16.88;3.78;;;5.50;99.90;;;;;;5120255;27;20490;-80
2022/01/09 09:29:07;;;;;;;25.25;4.28;;;5.60;99.90;;;;;;5124009;27;20497;-81
2022/01/09 09:31:33;;;;;;;24.98;3.40;;;5.50;99.90;;;;;;5123879;27;20887;-81
2022/01/09 09:34:00;;;;;;;17.33;3.92;;;5.60;99.90;;;;;;5109929;27;20065;-81
2022/01/09 09:36:26;;;;;;;28.50;3.83;;;5.50;99.90;;;;;;5125624;27;20055;-81
2022/01/09 09:38:53;;;;;;;17.30;2.53;;;5.50;99.90;;;;;;5127290;27;20478;-80
2022/01/09 09:41:19;;;;;;;14.75;4.40;;;5.50;99.90;;;;;;5125816;27;20453;-81
2022/01/09 09:43:46;;;;;;;13.48;2.60;;;5.50;99.90;;;;;;5125792;27;20470;-79
2022/01/09 09:46:13;;;;;;;14.13;2.92;;;5.60;99.90;;;;;;5127871;27;20577;-80
2022/01/09 09:48:40;;;;;;;14.10;4.30;;;5.50;99.90;;;;;;5124612;27;20054;-80
2022/01/09 09:51:06;;;;;;;13.48;4.28;;;5.40;99.90;;;;;;5125026;27;20047;-80
2022/01/09 09:53:33;;;;;;;12.25;4.15;;;5.40;99.90;;;;;;5118988;27;20250;-80
2022/01/09 09:56:00;;;;;;;21.02;3.47;;;5.40;99.90;;;;;;5116951;27;20611;-80
2022/01/09 09:58:27;;;;;;;12.55;3.83;;;5.40;99.90;;;;;;5123892;27;21038;-81
2022/01/09 10:00:53;;;;;;;21.00;3.95;;;5.40;99.90;;;;;;5124738;27;20492;-80
2022/01/09 10:03:20;;;;;;;12.45;4.10;;;5.50;99.90;;;;;;5125963;27;20774;-80
2022/01/09 10:05:46;;;;;;;18.95;4.20;;;5.50;99.90;;;;;;5122030;27;20051;-80
2022/01/09 10:08:15;;;;;;;18.83;2.75;;;5.50;99.90;;;;;;5128031;27;20051;-80
2022/01/09 10:10:41;;;;;;;17.35;3.90;;;5.50;99.90;;;;;;5122022;27;20085;-79
2022/01/09 10:13:08;;;;;;;14.27;4.15;;;5.60;99.90;;;;;;5116293;27;20055;-80
2022/01/09 10:15:34;;;;;;;10.45;3.65;;;5.60;99.90;;;;;;5110513;27;20049;-81
2022/01/09 10:18:01;;;;;;;14.35;3.30;;;5.60;99.90;;;;;;5122914;27;20051;-80
2022/01/09 10:20:27;;;;;;;24.05;4.00;;;5.70;99.90;;;;;;5117379;27;20047;-80
2022/01/09 10:22:54;;;;;;;19.08;3.97;;;5.60;99.90;;;;;;5112640;27;20074;-80
2022/01/09 10:25:21;;;;;;;24.52;3.80;;;5.70;99.90;;;;;;5122627;27;20043;-81
2022/01/09 10:27:47;;;;;;;17.67;3.33;;;5.70;99.90;;;;;;5122525;27;20043;-80
2022/01/09 10:30:14;;;;;;;15.32;3.15;;;5.80;99.90;;;;;;5116768;27;20058;-80
2022/01/09 10:32:40;;;;;;;18.70;3.55;;;5.80;99.90;;;;;;5110780;27;20047;-80
2022/01/09 10:35:07;;;;;;;13.38;3.17;;;5.80;99.90;;;;;;5122897;27;20050;-79
2022/01/09 10:37:35;;;;;;;13.30;3.08;;;5.90;99.90;;;;;;5119453;27;20058;-79
2022/01/09 10:40:01;;;;;;;13.18;3.60;;;5.80;99.90;;;;;;5110022;27;20130;-80
2022/01/09 10:42:28;;;;;;;10.98;3.13;;;5.90;99.90;;;;;;5118176;27;20047;-80
2022/01/09 10:44:54;;;;;;;19.45;3.58;;;5.90;99.90;;;;;;5114729;27;20051;-80
2022/01/09 10:47:21;;;;;;;17.48;3.50;;;5.90;99.90;;;;;;5112527;27;20051;-80
2022/01/09 10:49:48;;;;;;;14.27;3.30;;;6.00;99.90;;;;;;5125562;27;20050;-80
2022/01/09 10:52:14;;;;;;;12.32;2.70;;;5.90;99.90;;;;;;5128401;27;20062;-80
2022/01/09 10:54:42;;;;;;;21.42;3.20;;;6.00;99.90;;;;;;5123791;27;20059;-80
2022/01/09 10:57:08;;;;;;;19.52;3.88;;;6.00;99.90;;;;;;5127473;27;20557;-80
2022/01/09 10:59:35;;;;;;;11.20;4.35;;;5.90;99.90;;;;;;5114406;27;20403;-81
2022/01/09 11:02:01;;;;;;;10.48;3.28;;;6.00;99.90;;;;;;5112524;27;20053;-81
2022/01/09 11:04:28;;;;;;;8.75;2.55;;;6.00;99.90;;;;;;5114344;27;20047;-81
2022/01/09 11:06:55;;;;;;;9.60;2.70;;;6.00;99.90;;;;;;5120493;27;20604;-81
2022/01/09 11:09:22;;;;;;;16.17;3.45;;;6.00;99.90;;;;;;5115484;27;20046;-81
2022/01/09 11:11:49;;;;;;;10.95;3.35;;;6.00;99.90;;;;;;5118713;27;20502;-81
2022/01/09 11:14:18;;;;;;;9.35;3.28;;;6.10;99.90;;;;;;5113534;28;20057;-81
2022/01/09 11:16:51;;;;;;;15.48;3.28;;;6.00;99.90;;;;;;5118326;27;20704;-81
2022/01/09 11:19:17;;;;;;;12.27;2.97;;;6.00;99.90;;;;;;5128008;27;20061;-81
2022/01/09 11:21:44;;;;;;;18.80;3.88;;;6.10;99.90;;;;;;5120356;27;20058;-81
2022/01/09 11:24:10;;;;;;;11.13;2.97;;;6.00;99.90;;;;;;5134035;27;20081;-81
2022/01/09 11:26:37;;;;;;;13.45;2.70;;;6.00;99.90;;;;;;5120761;27;20050;-82
2022/01/09 11:29:06;;;;;;;21.00;3.25;;;6.10;99.90;;;;;;5124213;27;20140;-81
2022/01/09 11:31:32;;;;;;;8.25;2.72;;;6.00;99.90;;;;;;5128183;27;20059;-82
2022/01/09 11:33:59;;;;;;;21.02;2.50;;;6.00;99.90;;;;;;5121789;27;20082;-81
2022/01/09 11:36:25;;;;;;;14.32;3.55;;;6.10;99.90;;;;;;5129869;27;20055;-83
2022/01/09 11:38:52;;;;;;;18.40;3.45;;;6.20;99.90;;;;;;5127953;27;20059;-81
2022/01/09 11:41:19;;;;;;;8.88;3.40;;;6.20;99.90;;;;;;5127241;27;20478;-81
2022/01/09 11:43:45;;;;;;;12.27;3.33;;;6.20;99.90;;;;;;5130382;27;20560;-81
2022/01/09 11:46:12;;;;;;;11.32;2.53;;;6.20;99.90;;;;;;5133159;27;20493;-81
2022/01/09 11:48:38;;;;;;;19.20;3.38;;;6.30;99.90;;;;;;5130477;27;20422;-81
2022/01/09 11:51:05;;;;;;;13.80;4.25;;;6.40;99.90;;;;;;5131537;27;20061;-81
2022/01/09 11:53:31;;;;;;;14.00;3.13;;;6.40;99.90;;;;;;5130440;27;20051;-81
2022/01/09 11:55:58;;;;;;;11.20;3.45;;;6.40;99.90;;;;;;5130011;27;20058;-82
2022/01/09 11:58:24;;;;;;;20.77;3.58;;;6.40;99.90;;;;;;5134299;27;20065;-81
2022/01/09 12:00:52;;;;;;;22.73;3.30;;;6.40;99.90;;;;;;5129856;27;20788;-81
2022/01/09 12:03:19;;;;;;;12.32;3.28;;;6.50;99.90;;;;;;5132630;27;20118;-81
2022/01/09 12:05:45;;;;;;;8.75;2.20;;;6.50;99.90;;;;;;5130517;27;20051;-81
2022/01/09 12:08:12;;;;;;;17.42;2.55;;;6.60;99.90;;;;;;5129329;27;20047;-81
2022/01/09 12:10:38;;;;;;;5.50;2.28;;;6.60;99.90;;;;;;5124738;27;20066;-81
2022/01/09 12:13:05;;;;;;;10.15;2.85;;;6.60;99.90;;;;;;5118396;27;20058;-82
2022/01/09 12:15:31;;;;;;;10.80;2.80;;;6.60;99.90;;;;;;5118905;27;20055;-82
2022/01/09 12:18:00;;;;;;;11.75;3.42;;;6.60;99.90;;;;;;5121325;27;20055;-81
2022/01/09 12:20:28;;;;;;;12.38;2.55;;;6.70;99.90;;;;;;5117546;27;20090;-81
2022/01/09 12:23:01;;;;;;;9.25;2.45;;;6.70;99.90;;;;;;5122409;27;20091;-81
2022/01/09 12:25:29;;;;;;;15.52;3.05;;;6.70;99.90;;;;;;5131899;27;20046;-81
2022/01/09 12:27:57;;;;;;;12.48;3.55;;;6.70;99.90;;;;;;5128610;27;20482;-81
2022/01/09 12:30:23;;;;;;;18.23;3.13;;;6.60;99.90;;;;;;5112756;27;20071;-81
2022/01/09 12:32:50;;;;;;;13.00;3.38;;;6.60;99.90;;;;;;5117518;27;20048;-81
2022/01/09 12:35:16;;;;;;;15.80;3.00;;;6.50;99.90;;;;;;5111082;27;20044;-81
2022/01/09 12:37:43;;;;;;;11.48;2.50;;;6.50;99.90;;;;;;5115733;27;20051;-81
2022/01/09 12:40:10;;;;;;;12.23;2.70;;;6.40;99.90;;;;;;5130165;27;20490;-80
2022/01/09 12:42:36;;;;;;;24.98;3.60;;;6.50;99.90;;;;;;5129024;27;20052;-81
2022/01/09 12:45:03;;;;;;;11.50;2.85;;;6.50;99.90;;;;;;5129289;27;20489;-80
2022/01/09 12:47:29;;;;;;;7.95;2.75;;;6.50;99.90;;;;;;5120242;27;20406;-81